This is the latest recevied weather packets stored in our database for station/object OE3TEC-15. If no packets are shown the sender has not sent any weather packets the latest 10 day(s).
| Time | Temp. | Humidity | Pressure | Rain* | Wind** | Luminosity | Snow |
|---|---|---|---|---|---|---|---|
| 1777428348 | 4.44° C | 49% | 1024 hPa | 0 mm | - | 0 W/m² | - |
| 1777427740 | 4.44° C | 49% | 1024 hPa | 0 mm | - | 0 W/m² | - |
| 1777427135 | 5° C | 48% | 1024.1 hPa | 0 mm | - | 0 W/m² | - |
| 1777426527 | 5° C | 48% | 1023.9 hPa | 0 mm | - | 0 W/m² | - |
| 1777425920 | 5° C | 48% | 1023.9 hPa | 0 mm | - | 0 W/m² | - |
| 1777425313 | 5° C | 48% | 1023.9 hPa | 0 mm | - | 0 W/m² | - |
| 1777423500 | 3.89° C | 55% | 1024.1 hPa | 0 mm | - | 0 W/m² | - |
| 1777422893 | 4.44° C | 55% | 1024 hPa | 0 mm | - | 0 W/m² | - |
| 1777422287 | 4.44° C | 58% | 1024.1 hPa | 0 mm | - | 0 W/m² | - |
| 1777421679 | 5° C | 53% | 1024 hPa | 0 mm | - | 0 W/m² | - |
| 1777421073 | 6.67° C | 47% | 1024.1 hPa | 0 mm | - | 0 W/m² | - |
| 1777420465 | 6.67° C | 43% | 1024.1 hPa | 0 mm | - | 0 W/m² | - |
| 1777419858 | 6.11° C | 45% | 1023.9 hPa | 0 mm | - | 0 W/m² | - |
| 1777419250 | 6.67° C | 48% | 1023.8 hPa | 0 mm | - | 0 W/m² | - |
| 1777418642 | 7.22° C | 44% | 1023.9 hPa | 0 mm | - | 0 W/m² | - |
| 1777418035 | 7.22° C | 43% | 1023.9 hPa | 0 mm | - | 0 W/m² | - |
| 1777417428 | 7.78° C | 43% | 1023.5 hPa | 0 mm | - | 0 W/m² | - |
| 1777416821 | 7.78° C | 42% | 1023.7 hPa | 0 mm | - | 0 W/m² | - |
| 1777416214 | 8.33° C | 42% | 1023.6 hPa | 0 mm | - | 0 W/m² | - |
| 1777415607 | 7.78° C | 44% | 1023.4 hPa | 0 mm | - | 0 W/m² | - |
| 1777414999 | 7.78° C | 45% | 1023.7 hPa | 0 mm | - | 0 W/m² | - |
| 1777414392 | 7.78° C | 48% | 1023.6 hPa | 0 mm | - | 0 W/m² | - |
| 1777413784 | 8.33° C | 46% | 1023.4 hPa | 0 mm | - | 0 W/m² | - |
| 1777413178 | 8.89° C | 46% | 1023.5 hPa | 0 mm | - | 0 W/m² | - |
| 1777412571 | 9.44° C | 44% | 1023.3 hPa | 0 mm | - | 0 W/m² | - |
* Rain latest hour (hover to see other rain measurements)
** Current wind speed in m/s (hover to see current wind gust speed)